sensor_id;sensor_type;location;lat;lon;timestamp;pressure;altitude;pressure_sealevel;temperature;humidity
33454;BME280;39400;49.744;7.012;2022-12-18T00:00:58;96758.63;;;-3.44;95.51
33454;BME280;39400;49.744;7.012;2022-12-18T00:03:23;96750.66;;;-3.25;94.48
33454;BME280;39400;49.744;7.012;2022-12-18T00:05:50;96737.56;;;-3.37;94.26
33454;BME280;39400;49.744;7.012;2022-12-18T00:08:16;96764.94;;;-3.29;94.64
33454;BME280;39400;49.744;7.012;2022-12-18T00:10:42;96759.53;;;-3.29;94.71
33454;BME280;39400;49.744;7.012;2022-12-18T00:13:07;96761.84;;;-3.42;95.50
33454;BME280;39400;49.744;7.012;2022-12-18T00:15:34;96770.75;;;-3.46;95.79
33454;BME280;39400;49.744;7.012;2022-12-18T00:18:00;96774.34;;;-3.56;96.80
33454;BME280;39400;49.744;7.012;2022-12-18T00:20:25;96765.25;;;-3.60;97.03
33454;BME280;39400;49.744;7.012;2022-12-18T00:22:52;96765.38;;;-3.46;95.79
33454;BME280;39400;49.744;7.012;2022-12-18T00:25:17;96762.88;;;-3.38;94.54
33454;BME280;39400;49.744;7.012;2022-12-18T00:27:43;96765.56;;;-3.38;94.03
33454;BME280;39400;49.744;7.012;2022-12-18T00:30:09;96766.69;;;-3.15;92.67
33454;BME280;39400;49.744;7.012;2022-12-18T00:32:34;96752.94;;;-3.13;91.76
33454;BME280;39400;49.744;7.012;2022-12-18T00:35:01;96751.78;;;-3.07;91.26
33454;BME280;39400;49.744;7.012;2022-12-18T00:37:26;96746.97;;;-3.10;91.48
33454;BME280;39400;49.744;7.012;2022-12-18T00:39:51;96738.56;;;-3.03;91.20
33454;BME280;39400;49.744;7.012;2022-12-18T00:42:18;96736.53;;;-3.12;90.94
33454;BME280;39400;49.744;7.012;2022-12-18T00:44:43;96731.41;;;-2.89;88.98
33454;BME280;39400;49.744;7.012;2022-12-18T00:47:09;96724.44;;;-2.90;88.05
33454;BME280;39400;49.744;7.012;2022-12-18T00:49:34;96728.50;;;-2.93;88.71
33454;BME280;39400;49.744;7.012;2022-12-18T00:52:00;96728.94;;;-2.85;88.11
33454;BME280;39400;49.744;7.012;2022-12-18T00:54:25;96727.84;;;-2.84;88.02
33454;BME280;39400;49.744;7.012;2022-12-18T00:56:50;96737.47;;;-2.78;87.96
33454;BME280;39400;49.744;7.012;2022-12-18T00:59:17;96727.28;;;-2.81;88.34
33454;BME280;39400;49.744;7.012;2022-12-18T01:01:43;96739.06;;;-2.77;88.40
33454;BME280;39400;49.744;7.012;2022-12-18T01:04:08;96735.66;;;-2.83;87.87
33454;BME280;39400;49.744;7.012;2022-12-18T01:06:34;96723.56;;;-2.85;86.85
33454;BME280;39400;49.744;7.012;2022-12-18T01:08:59;96718.69;;;-2.83;87.37
33454;BME280;39400;49.744;7.012;2022-12-18T01:11:25;96742.84;;;-2.78;86.40
33454;BME280;39400;49.744;7.012;2022-12-18T01:13:52;96736.31;;;-2.72;85.20
33454;BME280;39400;49.744;7.012;2022-12-18T01:16:17;96730.13;;;-2.73;84.51
33454;BME280;39400;49.744;7.012;2022-12-18T01:18:43;96720.16;;;-2.72;84.48
33454;BME280;39400;49.744;7.012;2022-12-18T01:21:10;96721.25;;;-2.73;84.58
33454;BME280;39400;49.744;7.012;2022-12-18T01:23:36;96727.22;;;-2.76;85.16
33454;BME280;39400;49.744;7.012;2022-12-18T01:26:13;96739.56;;;-2.75;84.33
33454;BME280;39400;49.744;7.012;2022-12-18T01:28:41;96740.09;;;-2.73;84.22
33454;BME280;39400;49.744;7.012;2022-12-18T01:33:38;96753.47;;;-2.68;83.07
33454;BME280;39400;49.744;7.012;2022-12-18T01:36:05;96756.69;;;-2.66;82.85
33454;BME280;39400;49.744;7.012;2022-12-18T01:38:31;96764.47;;;-2.65;81.98
33454;BME280;39400;49.744;7.012;2022-12-18T01:41:01;96774.09;;;-2.58;81.35
33454;BME280;39400;49.744;7.012;2022-12-18T01:43:46;96778.72;;;-2.64;82.79
33454;BME280;39400;49.744;7.012;2022-12-18T01:46:13;96766.59;;;-2.61;81.93
33454;BME280;39400;49.744;7.012;2022-12-18T01:48:39;96774.09;;;-2.58;80.91
33454;BME280;39400;49.744;7.012;2022-12-18T01:51:10;96754.06;;;-2.71;81.35
33454;BME280;39400;49.744;7.012;2022-12-18T01:53:39;96743.28;;;-2.71;82.18
33454;BME280;39400;49.744;7.012;2022-12-18T01:56:05;96748.66;;;-2.71;81.90
33454;BME280;39400;49.744;7.012;2022-12-18T01:58:44;96739.66;;;-2.80;82.34
33454;BME280;39400;49.744;7.012;2022-12-18T02:01:11;96756.69;;;-2.66;81.71
33454;BME280;39400;49.744;7.012;2022-12-18T02:03:41;96731.94;;;-2.68;80.77
33454;BME280;39400;49.744;7.012;2022-12-18T02:06:33;96739.50;;;-2.70;81.01
33454;BME280;39400;49.744;7.012;2022-12-18T02:09:20;96741.13;;;-2.69;80.84
33454;BME280;39400;49.744;7.012;2022-12-18T02:11:56;96722.28;;;-2.69;80.66
33454;BME280;39400;49.744;7.012;2022-12-18T02:15:02;96720.91;;;-2.67;80.63
33454;BME280;39400;49.744;7.012;2022-12-18T02:17:32;96719.31;;;-2.49;78.72
33454;BME280;39400;49.744;7.012;2022-12-18T02:20:05;96728.91;;;-2.61;80.60
33454;BME280;39400;49.744;7.012;2022-12-18T02:25:08;96724.41;;;-2.66;79.98
33454;BME280;39400;49.744;7.012;2022-12-18T02:27:39;96714.78;;;-2.72;79.62
33454;BME280;39400;49.744;7.012;2022-12-18T02:30:07;96721.31;;;-2.78;80.62
33454;BME280;39400;49.744;7.012;2022-12-18T02:32:42;96710.63;;;-2.83;80.94
33454;BME280;39400;49.744;7.012;2022-12-18T02:35:16;96713.31;;;-2.83;81.34
33454;BME280;39400;49.744;7.012;2022-12-18T02:37:44;96717.06;;;-2.84;81.32
33454;BME280;39400;49.744;7.012;2022-12-18T02:40:13;96713.31;;;-2.83;80.87
33454;BME280;39400;49.744;7.012;2022-12-18T02:42:39;96704.50;;;-2.89;81.70
33454;BME280;39400;49.744;7.012;2022-12-18T02:45:07;96705.16;;;-2.78;80.93
33454;BME280;39400;49.744;7.012;2022-12-18T02:47:38;96702.47;;;-2.78;80.52
33454;BME280;39400;49.744;7.012;2022-12-18T02:55:49;96693.59;;;-2.79;80.48
33454;BME280;39400;49.744;7.012;2022-12-18T03:01:16;96697.75;;;-2.87;81.72
33454;BME280;39400;49.744;7.012;2022-12-18T03:03:51;96697.22;;;-2.89;82.51
33454;BME280;39400;49.744;7.012;2022-12-18T03:06:43;96702.69;;;-2.94;83.43
33454;BME280;39400;49.744;7.012;2022-12-18T03:09:17;96706.66;;;-2.91;84.89
33454;BME280;39400;49.744;7.012;2022-12-18T03:11:47;96709.00;;;-2.84;83.83
33454;BME280;39400;49.744;7.012;2022-12-18T03:14:17;96717.66;;;-2.88;84.70
33454;BME280;39400;49.744;7.012;2022-12-18T03:16:49;96710.22;;;-2.96;84.39
33454;BME280;39400;49.744;7.012;2022-12-18T03:19:21;96703.75;;;-2.95;85.09
33454;BME280;39400;49.744;7.012;2022-12-18T03:21:52;96722.22;;;-2.88;85.13
33454;BME280;39400;49.744;7.012;2022-12-18T03:24:20;96701.50;;;-2.88;85.19
33454;BME280;39400;49.744;7.012;2022-12-18T03:26:50;96718.81;;;-2.94;85.67
33454;BME280;39400;49.744;7.012;2022-12-18T03:29:21;96712.53;;;-2.84;85.29
33454;BME280;39400;49.744;7.012;2022-12-18T03:31:51;96725.22;;;-2.90;85.79
33454;BME280;39400;49.744;7.012;2022-12-18T03:34:24;96719.97;;;-3.00;86.85
33454;BME280;39400;49.744;7.012;2022-12-18T03:36:52;96708.88;;;-2.93;86.96
33454;BME280;39400;49.744;7.012;2022-12-18T03:39:19;96713.91;;;-2.87;86.46
33454;BME280;39400;49.744;7.012;2022-12-18T03:42:09;96707.50;;;-2.91;86.16
33454;BME280;39400;49.744;7.012;2022-12-18T03:44:56;96704.84;;;-2.96;86.97
33454;BME280;39400;49.744;7.012;2022-12-18T03:47:29;96701.59;;;-2.93;86.91
33454;BME280;39400;49.744;7.012;2022-12-18T03:50:11;96696.72;;;-2.91;86.75
33454;BME280;39400;49.744;7.012;2022-12-18T03:52:49;96699.91;;;-2.89;85.53
33454;BME280;39400;49.744;7.012;2022-12-18T03:55:17;96694.75;;;-2.85;85.14
33454;BME280;39400;49.744;7.012;2022-12-18T03:57:48;96692.28;;;-2.81;85.26
33454;BME280;39400;49.744;7.012;2022-12-18T04:00:33;96685.16;;;-2.91;85.98
33454;BME280;39400;49.744;7.012;2022-12-18T04:03:07;96694.09;;;-2.96;85.81
33454;BME280;39400;49.744;7.012;2022-12-18T04:05:41;96692.50;;;-2.97;85.88
33454;BME280;39400;49.744;7.012;2022-12-18T04:08:07;96683.56;;;-2.92;84.47
33454;BME280;39400;49.744;7.012;2022-12-18T04:10:36;96675.69;;;-2.89;84.96
33454;BME280;39400;49.744;7.012;2022-12-18T04:13:02;96681.09;;;-2.89;84.32
33454;BME280;39400;49.744;7.012;2022-12-18T04:15:28;96682.19;;;-2.90;84.40
33454;BME280;39400;49.744;7.012;2022-12-18T04:17:54;96681.03;;;-2.83;84.44
33454;BME280;39400;49.744;7.012;2022-12-18T04:20:23;96685.75;;;-2.94;85.03
33454;BME280;39400;49.744;7.012;2022-12-18T04:22:48;96672.69;;;-3.06;85.28
33454;BME280;39400;49.744;7.012;2022-12-18T04:25:14;96677.19;;;-3.20;85.60
33454;BME280;39400;49.744;7.012;2022-12-18T04:27:50;96693.19;;;-3.10;85.81
33454;BME280;39400;49.744;7.012;2022-12-18T04:30:16;96686.72;;;-3.09;85.77
33454;BME280;39400;49.744;7.012;2022-12-18T04:32:42;96681.19;;;-3.18;85.61
33454;BME280;39400;49.744;7.012;2022-12-18T04:35:08;96676.31;;;-3.16;86.87
33454;BME280;39400;49.744;7.012;2022-12-18T04:37:33;96666.94;;;-3.18;86.51
33454;BME280;39400;49.744;7.012;2022-12-18T04:39:59;96663.31;;;-3.08;85.57
33454;BME280;39400;49.744;7.012;2022-12-18T04:42:32;96674.44;;;-3.15;86.08
33454;BME280;39400;49.744;7.012;2022-12-18T04:44:58;96670.44;;;-3.18;86.30
33454;BME280;39400;49.744;7.012;2022-12-18T04:47:23;96676.25;;;-3.11;85.64
33454;BME280;39400;49.744;7.012;2022-12-18T04:49:48;96676.47;;;-3.07;84.27
33454;BME280;39400;49.744;7.012;2022-12-18T04:52:13;96676.59;;;-3.17;84.88
33454;BME280;39400;49.744;7.012;2022-12-18T04:54:39;96677.06;;;-3.10;84.13
33454;BME280;39400;49.744;7.012;2022-12-18T04:57:04;96680.84;;;-3.11;84.49
33454;BME280;39400;49.744;7.012;2022-12-18T04:59:29;96668.09;;;-3.05;83.15
33454;BME280;39400;49.744;7.012;2022-12-18T05:01:55;96669.78;;;-3.09;83.75
33454;BME280;39400;49.744;7.012;2022-12-18T05:04:20;96667.31;;;-3.06;83.54
33454;BME280;39400;49.744;7.012;2022-12-18T05:06:45;96669.44;;;-3.03;83.80
33454;BME280;39400;49.744;7.012;2022-12-18T05:09:11;96668.75;;;-3.14;84.00
33454;BME280;39400;49.744;7.012;2022-12-18T05:11:36;96676.75;;;-3.08;84.27
33454;BME280;39400;49.744;7.012;2022-12-18T05:14:02;96689.97;;;-3.12;84.34
33454;BME280;39400;49.744;7.012;2022-12-18T05:16:27;96682.31;;;-3.00;83.86
33454;BME280;39400;49.744;7.012;2022-12-18T05:18:52;96696.84;;;-3.01;83.57
33454;BME280;39400;49.744;7.012;2022-12-18T05:21:18;96699.03;;;-3.03;83.17
33454;BME280;39400;49.744;7.012;2022-12-18T05:23:43;96706.31;;;-3.27;84.21
33454;BME280;39400;49.744;7.012;2022-12-18T05:26:09;96703.50;;;-3.41;85.50
33454;BME280;39400;49.744;7.012;2022-12-18T05:28:39;96712.00;;;-3.58;86.16
33454;BME280;39400;49.744;7.012;2022-12-18T05:31:04;96703.69;;;-3.62;87.44
33454;BME280;39400;49.744;7.012;2022-12-18T05:33:32;96698.66;;;-3.68;87.13
33454;BME280;39400;49.744;7.012;2022-12-18T05:36:03;96706.91;;;-3.60;87.11
33454;BME280;39400;49.744;7.012;2022-12-18T05:38:30;96700.44;;;-3.59;87.42
33454;BME280;39400;49.744;7.012;2022-12-18T05:40:57;96695.75;;;-3.48;86.14
33454;BME280;39400;49.744;7.012;2022-12-18T05:43:23;96699.72;;;-3.40;85.68
33454;BME280;39400;49.744;7.012;2022-12-18T05:45:50;96714.38;;;-3.27;84.39
33454;BME280;39400;49.744;7.012;2022-12-18T05:48:16;96715.50;;;-3.33;84.47
33454;BME280;39400;49.744;7.012;2022-12-18T05:50:43;96724.94;;;-3.60;86.36
33454;BME280;39400;49.744;7.012;2022-12-18T05:53:09;96732.03;;;-3.74;87.39
33454;BME280;39400;49.744;7.012;2022-12-18T05:55:35;96732.09;;;-4.14;89.57
33454;BME280;39400;49.744;7.012;2022-12-18T05:58:03;96727.31;;;-3.88;87.57
33454;BME280;39400;49.744;7.012;2022-12-18T06:00:29;96731.28;;;-4.14;89.53
33454;BME280;39400;49.744;7.012;2022-12-18T06:02:55;96726.47;;;-4.17;89.98
33454;BME280;39400;49.744;7.012;2022-12-18T06:05:20;96722.13;;;-4.13;89.96
33454;BME280;39400;49.744;7.012;2022-12-18T06:07:46;96720.06;;;-4.21;90.88
33454;BME280;39400;49.744;7.012;2022-12-18T06:10:11;96723.94;;;-4.38;91.05
33454;BME280;39400;49.744;7.012;2022-12-18T06:12:36;96723.78;;;-4.17;88.65
33454;BME280;39400;49.744;7.012;2022-12-18T06:15:02;96720.56;;;-4.19;88.75
33454;BME280;39400;49.744;7.012;2022-12-18T06:17:31;96716.34;;;-4.25;89.63
33454;BME280;39400;49.744;7.012;2022-12-18T06:19:56;96720.50;;;-4.43;91.51
33454;BME280;39400;49.744;7.012;2022-12-18T06:22:22;96716.34;;;-4.25;89.42
33454;BME280;39400;49.744;7.012;2022-12-18T06:24:47;96721.66;;;-4.20;87.73
33454;BME280;39400;49.744;7.012;2022-12-18T06:27:13;96712.75;;;-4.55;91.36
33454;BME280;39400;49.744;7.012;2022-12-18T06:29:38;96713.69;;;-4.31;89.79
33454;BME280;39400;49.744;7.012;2022-12-18T06:32:04;96713.81;;;-4.51;91.27
33454;BME280;39400;49.744;7.012;2022-12-18T06:34:32;96714.66;;;-4.61;92.94
33454;BME280;39400;49.744;7.012;2022-12-18T06:36:58;96723.19;;;-4.43;91.75
33454;BME280;39400;49.744;7.012;2022-12-18T06:39:24;96716.84;;;-4.63;93.55
33454;BME280;39400;49.744;7.012;2022-12-18T06:41:50;96720.31;;;-4.57;93.30
33454;BME280;39400;49.744;7.012;2022-12-18T06:44:15;96725.41;;;-4.61;93.94
33454;BME280;39400;49.744;7.012;2022-12-18T06:46:40;96732.19;;;-4.73;95.07
33454;BME280;39400;49.744;7.012;2022-12-18T06:49:06;96725.78;;;-4.78;95.82
33454;BME280;39400;49.744;7.012;2022-12-18T06:51:31;96735.97;;;-4.74;96.36
33454;BME280;39400;49.744;7.012;2022-12-18T06:53:56;96721.41;;;-4.68;95.89
33454;BME280;39400;49.744;7.012;2022-12-18T06:56:22;96727.88;;;-4.69;95.72
33454;BME280;39400;49.744;7.012;2022-12-18T06:58:50;96733.78;;;-4.72;96.10
33454;BME280;39400;49.744;7.012;2022-12-18T07:01:15;96742.13;;;-4.74;95.71
33454;BME280;39400;49.744;7.012;2022-12-18T07:03:41;96741.38;;;-4.85;95.95
33454;BME280;39400;49.744;7.012;2022-12-18T07:06:13;96745.56;;;-4.68;95.87
33454;BME280;39400;49.744;7.012;2022-12-18T07:08:39;96752.34;;;-4.81;95.89
33454;BME280;39400;49.744;7.012;2022-12-18T07:11:04;96756.63;;;-4.85;96.63
33454;BME280;39400;49.744;7.012;2022-12-18T07:13:30;96757.75;;;-4.91;96.55
33454;BME280;39400;49.744;7.012;2022-12-18T07:15:55;96761.78;;;-4.94;97.17
33454;BME280;39400;49.744;7.012;2022-12-18T07:18:20;96761.25;;;-4.96;96.63
33454;BME280;39400;49.744;7.012;2022-12-18T07:20:46;96754.00;;;-4.95;96.98
33454;BME280;39400;49.744;7.012;2022-12-18T07:23:11;96758.59;;;-5.01;96.85
33454;BME280;39400;49.744;7.012;2022-12-18T07:25:37;96758.81;;;-4.92;97.30
33454;BME280;39400;49.744;7.012;2022-12-18T07:28:02;96753.75;;;-4.94;97.05
33454;BME280;39400;49.744;7.012;2022-12-18T07:30:28;96763.38;;;-4.88;96.47
33454;BME280;39400;49.744;7.012;2022-12-18T07:32:53;96763.41;;;-4.98;96.67
33454;BME280;39400;49.744;7.012;2022-12-18T07:35:19;96759.09;;;-4.99;96.52
33454;BME280;39400;49.744;7.012;2022-12-18T07:37:44;96771.53;;;-5.18;98.01
33454;BME280;39400;49.744;7.012;2022-12-18T07:40:10;96788.97;;;-5.26;99.38
33454;BME280;39400;49.744;7.012;2022-12-18T07:42:36;96797.00;;;-5.31;100.00
33454;BME280;39400;49.744;7.012;2022-12-18T07:45:02;96791.09;;;-5.28;99.93
33454;BME280;39400;49.744;7.012;2022-12-18T07:47:31;96796.97;;;-5.21;100.00
33454;BME280;39400;49.744;7.012;2022-12-18T07:49:58;96800.47;;;-5.20;100.00
33454;BME280;39400;49.744;7.012;2022-12-18T07:52:24;96789.22;;;-5.28;100.00
33454;BME280;39400;49.744;7.012;2022-12-18T07:54:49;96779.03;;;-5.15;100.00
33454;BME280;39400;49.744;7.012;2022-12-18T07:57:14;96775.72;;;-4.97;100.00
33454;BME280;39400;49.744;7.012;2022-12-18T07:59:40;96775.66;;;-4.76;98.69
33454;BME280;39400;49.744;7.012;2022-12-18T08:02:05;96774.69;;;-5.01;98.91
33454;BME280;39400;49.744;7.012;2022-12-18T08:04:30;96769.31;;;-5.01;98.75
33454;BME280;39400;49.744;7.012;2022-12-18T08:06:56;96768.75;;;-4.88;98.20
33454;BME280;39400;49.744;7.012;2022-12-18T08:09:21;96759.13;;;-5.04;98.79
33454;BME280;39400;49.744;7.012;2022-12-18T08:11:46;96754.75;;;-4.80;98.52
33454;BME280;39400;49.744;7.012;2022-12-18T08:14:12;96733.28;;;-4.80;98.45
33454;BME280;39400;49.744;7.012;2022-12-18T08:16:37;96730.31;;;-4.78;97.53
33454;BME280;39400;49.744;7.012;2022-12-18T08:19:02;96733.69;;;-4.52;97.27
33454;BME280;39400;49.744;7.012;2022-12-18T08:21:30;96726.41;;;-4.46;96.78
33454;BME280;39400;49.744;7.012;2022-12-18T08:23:57;96721.72;;;-4.31;96.39
33454;BME280;39400;49.744;7.012;2022-12-18T08:26:25;96714.72;;;-4.26;95.83
33454;BME280;39400;49.744;7.012;2022-12-18T08:28:51;96727.16;;;-4.36;96.13
33454;BME280;39400;49.744;7.012;2022-12-18T08:31:17;96725.03;;;-4.44;96.88
33454;BME280;39400;49.744;7.012;2022-12-18T08:33:43;96726.34;;;-4.36;97.52
33454;BME280;39400;49.744;7.012;2022-12-18T08:36:09;96721.97;;;-4.27;97.40
33454;BME280;39400;49.744;7.012;2022-12-18T08:38:35;96723.91;;;-4.33;97.81
33454;BME280;39400;49.744;7.012;2022-12-18T08:41:05;96734.09;;;-4.35;98.39
33454;BME280;39400;49.744;7.012;2022-12-18T08:43:30;96734.66;;;-4.38;98.22
33454;BME280;39400;49.744;7.012;2022-12-18T08:45:56;96735.09;;;-4.20;98.79
33454;BME280;39400;49.744;7.012;2022-12-18T08:48:21;96735.69;;;-4.28;98.22
33454;BME280;39400;49.744;7.012;2022-12-18T08:50:55;96739.13;;;-4.23;98.40
33454;BME280;39400;49.744;7.012;2022-12-18T08:53:20;96735.09;;;-4.20;98.60
33454;BME280;39400;49.744;7.012;2022-12-18T08:55:45;96740.69;;;-4.17;98.64
33454;BME280;39400;49.744;7.012;2022-12-18T08:58:11;96735.47;;;-3.98;98.16
33454;BME280;39400;49.744;7.012;2022-12-18T09:00:36;96735.66;;;-3.89;97.69
33454;BME280;39400;49.744;7.012;2022-12-18T09:03:01;96745.75;;;-3.76;96.75
33454;BME280;39400;49.744;7.012;2022-12-18T09:05:27;96754.91;;;-3.77;96.52
33454;BME280;39400;49.744;7.012;2022-12-18T09:07:52;96758.94;;;-3.79;97.48
33454;BME280;39400;49.744;7.012;2022-12-18T09:10:17;96757.19;;;-3.60;97.09
33454;BME280;39400;49.744;7.012;2022-12-18T09:12:43;96752.31;;;-3.58;97.04
33454;BME280;39400;49.744;7.012;2022-12-18T09:15:08;96756.00;;;-3.49;96.77
33454;BME280;39400;49.744;7.012;2022-12-18T09:17:34;96765.66;;;-3.48;97.21
33454;BME280;39400;49.744;7.012;2022-12-18T09:19:59;96769.53;;;-3.59;98.17
33454;BME280;39400;49.744;7.012;2022-12-18T09:22:24;96779.06;;;-3.43;98.36
33454;BME280;39400;49.744;7.012;2022-12-18T09:24:50;96776.38;;;-3.43;98.49
33454;BME280;39400;49.744;7.012;2022-12-18T09:27:15;96777.88;;;-3.31;98.49
33454;BME280;39400;49.744;7.012;2022-12-18T09:29:40;96777.94;;;-3.13;97.59
33454;BME280;39400;49.744;7.012;2022-12-18T09:32:05;96778.13;;;-3.04;96.16
33454;BME280;39400;49.744;7.012;2022-12-18T09:34:31;96780.50;;;-2.78;95.59
33454;BME280;39400;49.744;7.012;2022-12-18T09:36:56;96777.66;;;-2.63;94.61
33454;BME280;39400;49.744;7.012;2022-12-18T09:39:21;96779.69;;;-2.55;94.20
33454;BME280;39400;49.744;7.012;2022-12-18T09:41:51;96781.81;;;-2.52;94.33
33454;BME280;39400;49.744;7.012;2022-12-18T09:44:21;96793.16;;;-2.36;94.32
33454;BME280;39400;49.744;7.012;2022-12-18T09:46:54;96784.47;;;-2.28;94.10
33454;BME280;39400;49.744;7.012;2022-12-18T09:49:26;96776.81;;;-2.02;93.89
33454;BME280;39400;49.744;7.012;2022-12-18T09:52:00;96764.72;;;-1.85;93.75
33454;BME280;39400;49.744;7.012;2022-12-18T09:54:46;96758.94;;;-1.79;94.26
33454;BME280;39400;49.744;7.012;2022-12-18T09:57:20;96755.16;;;-1.78;93.50
33454;BME280;39400;49.744;7.012;2022-12-18T09:59:54;96759.38;;;-1.72;92.33
33454;BME280;39400;49.744;7.012;2022-12-18T10:02:22;96756.00;;;-1.63;90.56
33454;BME280;39400;49.744;7.012;2022-12-18T10:05:03;96749.34;;;-1.52;90.46
33454;BME280;39400;49.744;7.012;2022-12-18T10:07:49;96745.38;;;-1.74;89.91
33454;BME280;39400;49.744;7.012;2022-12-18T10:15:35;96754.00;;;-1.91;89.41
33454;BME280;39400;49.744;7.012;2022-12-18T10:18:17;96757.47;;;-2.04;89.68
33454;BME280;39400;49.744;7.012;2022-12-18T10:20:49;96761.81;;;-2.08;90.44
33454;BME280;39400;49.744;7.012;2022-12-18T10:25:55;96753.22;;;-2.10;90.21
33454;BME280;39400;49.744;7.012;2022-12-18T10:28:25;96748.63;;;-2.09;90.03
33454;BME280;39400;49.744;7.012;2022-12-18T10:30:51;96755.03;;;-2.05;90.00
33454;BME280;39400;49.744;7.012;2022-12-18T10:33:19;96748.19;;;-1.98;90.16
33454;BME280;39400;49.744;7.012;2022-12-18T10:35:47;96744.56;;;-1.74;89.26
33454;BME280;39400;49.744;7.012;2022-12-18T10:40:54;96731.78;;;-1.82;87.33
33454;BME280;39400;49.744;7.012;2022-12-18T10:43:23;96713.00;;;-1.87;87.78
33454;BME280;39400;49.744;7.012;2022-12-18T10:46:05;96721.03;;;-1.69;87.23
33454;BME280;39400;49.744;7.012;2022-12-18T10:48:48;96719.03;;;-1.63;85.30
33454;BME280;39400;49.744;7.012;2022-12-18T10:51:24;96728.09;;;-1.40;82.86
33454;BME280;39400;49.744;7.012;2022-12-18T10:54:17;96723.72;;;-1.22;82.71
33454;BME280;39400;49.744;7.012;2022-12-18T10:56:43;96726.22;;;-1.12;80.93
33454;BME280;39400;49.744;7.012;2022-12-18T10:59:11;96723.63;;;-1.17;80.75
33454;BME280;39400;49.744;7.012;2022-12-18T11:01:54;96723.53;;;-0.98;79.34
33454;BME280;39400;49.744;7.012;2022-12-18T11:04:25;96715.34;;;-0.79;78.88
33454;BME280;39400;49.744;7.012;2022-12-18T11:07:08;96714.59;;;-0.57;77.85
33454;BME280;39400;49.744;7.012;2022-12-18T11:09:35;96711.97;;;-0.49;77.00
33454;BME280;39400;49.744;7.012;2022-12-18T11:12:04;96693.84;;;-0.34;77.36
33454;BME280;39400;49.744;7.012;2022-12-18T11:14:41;96690.53;;;-0.09;77.63
33454;BME280;39400;49.744;7.012;2022-12-18T11:17:18;96689.13;;;-0.06;73.94
33454;BME280;39400;49.744;7.012;2022-12-18T11:19:44;96682.06;;;0.07;73.72
33454;BME280;39400;49.744;7.012;2022-12-18T11:22:29;96678.88;;;0.05;73.83
33454;BME280;39400;49.744;7.012;2022-12-18T11:25:31;96687.91;;;0.22;71.62
33454;BME280;39400;49.744;7.012;2022-12-18T11:27:59;96686.31;;;0.53;69.36
33454;BME280;39400;49.744;7.012;2022-12-18T11:30:36;96698.81;;;0.71;65.67
33454;BME280;39400;49.744;7.012;2022-12-18T11:33:11;96693.06;;;0.64;66.44
33454;BME280;39400;49.744;7.012;2022-12-18T11:35:49;96687.16;;;0.62;64.36
33454;BME280;39400;49.744;7.012;2022-12-18T11:38:34;96687.31;;;0.34;65.02
33454;BME280;39400;49.744;7.012;2022-12-18T11:41:13;96697.25;;;0.47;66.12
33454;BME280;39400;49.744;7.012;2022-12-18T11:43:54;96696.44;;;0.38;66.97
33454;BME280;39400;49.744;7.012;2022-12-18T11:46:39;96708.25;;;0.51;67.43
33454;BME280;39400;49.744;7.012;2022-12-18T11:49:17;96709.06;;;0.52;68.47
33454;BME280;39400;49.744;7.012;2022-12-18T11:51:51;96713.63;;;0.20;69.23
33454;BME280;39400;49.744;7.012;2022-12-18T11:54:19;96711.28;;;0.50;71.48
33454;BME280;39400;49.744;7.012;2022-12-18T11:56:58;96708.09;;;0.47;69.17
33454;BME280;39400;49.744;7.012;2022-12-18T11:59:36;96702.41;;;0.58;71.70
33454;BME280;39400;49.744;7.012;2022-12-18T12:02:34;96696.81;;;0.85;72.34
33454;BME280;39400;49.744;7.012;2022-12-18T12:08:06;96691.88;;;1.45;72.62
33454;BME280;39400;49.744;7.012;2022-12-18T12:10:40;96690.13;;;1.49;70.61
33454;BME280;39400;49.744;7.012;2022-12-18T12:18:49;96672.91;;;1.36;76.43
33454;BME280;39400;49.744;7.012;2022-12-18T12:23:53;96666.63;;;1.09;82.17
33454;BME280;39400;49.744;7.012;2022-12-18T12:29:36;96647.47;;;0.88;86.72
33454;BME280;39400;49.744;7.012;2022-12-18T12:38:03;96633.59;;;0.81;94.07
33454;BME280;39400;49.744;7.012;2022-12-18T12:40:34;96627.03;;;0.74;96.94
33454;BME280;39400;49.744;7.012;2022-12-18T12:43:24;96625.25;;;0.69;98.98
33454;BME280;39400;49.744;7.012;2022-12-18T12:46:07;96618.75;;;0.70;100.00
33454;BME280;39400;49.744;7.012;2022-12-18T12:48:43;96619.72;;;0.74;100.00
33454;BME280;39400;49.744;7.012;2022-12-18T12:51:26;96617.88;;;1.01;100.00
33454;BME280;39400;49.744;7.012;2022-12-18T12:53:54;96617.19;;;0.86;100.00
33454;BME280;39400;49.744;7.012;2022-12-18T12:56:22;96610.41;;;0.98;100.00
33454;BME280;39400;49.744;7.012;2022-12-18T12:59:04;96608.78;;;0.97;100.00
33454;BME280;39400;49.744;7.012;2022-12-18T13:01:46;96612.59;;;0.95;100.00
33454;BME280;39400;49.744;7.012;2022-12-18T13:04:27;96612.97;;;1.11;100.00
33454;BME280;39400;49.744;7.012;2022-12-18T13:07:10;96607.72;;;1.15;100.00
33454;BME280;39400;49.744;7.012;2022-12-18T13:12:55;96602.28;;;1.24;100.00
33454;BME280;39400;49.744;7.012;2022-12-18T13:26:00;96613.31;;;1.71;100.00
33454;BME280;39400;49.744;7.012;2022-12-18T13:31:11;96611.84;;;1.73;100.00
33454;BME280;39400;49.744;7.012;2022-12-18T13:33:43;96610.13;;;1.60;100.00
33454;BME280;39400;49.744;7.012;2022-12-18T13:41:35;96601.19;;;1.51;100.00
33454;BME280;39400;49.744;7.012;2022-12-18T13:51:41;96591.16;;;1.25;100.00
33454;BME280;39400;49.744;7.012;2022-12-18T13:54:33;96593.84;;;1.08;100.00
33454;BME280;39400;49.744;7.012;2022-12-18T13:57:00;96587.16;;;1.05;100.00
33454;BME280;39400;49.744;7.012;2022-12-18T14:02:00;96575.19;;;0.98;100.00
33454;BME280;39400;49.744;7.012;2022-12-18T14:04:34;96572.94;;;1.00;100.00
33454;BME280;39400;49.744;7.012;2022-12-18T14:07:05;96563.19;;;0.73;100.00
33454;BME280;39400;49.744;7.012;2022-12-18T14:09:35;96576.88;;;0.76;100.00
33454;BME280;39400;49.744;7.012;2022-12-18T14:12:01;96577.31;;;0.61;100.00
33454;BME280;39400;49.744;7.012;2022-12-18T14:14:28;96572.38;;;0.54;100.00
33454;BME280;39400;49.744;7.012;2022-12-18T14:16:54;96575.41;;;0.53;100.00
33454;BME280;39400;49.744;7.012;2022-12-18T14:19:19;96577.31;;;0.61;100.00
33454;BME280;39400;49.744;7.012;2022-12-18T14:21:47;96577.53;;;0.73;100.00
33454;BME280;39400;49.744;7.012;2022-12-18T14:24:20;96578.44;;;0.60;100.00
33454;BME280;39400;49.744;7.012;2022-12-18T14:26:47;96571.63;;;0.71;100.00
33454;BME280;39400;49.744;7.012;2022-12-18T14:29:29;96573.66;;;0.65;100.00